sensor_id;sensor_type;location;lat;lon;timestamp;P1;durP1;ratioP1;P2;durP2;ratioP2
15526;SDS011;7865;50.918;4.510;2023-06-19T00:03:05;7.90;;;3.80;;
15526;SDS011;7865;50.918;4.510;2023-06-19T00:08:07;4.82;;;3.28;;
15526;SDS011;7865;50.918;4.510;2023-06-19T00:13:09;3.95;;;3.47;;
15526;SDS011;7865;50.918;4.510;2023-06-19T00:18:11;6.78;;;3.80;;
15526;SDS011;7865;50.918;4.510;2023-06-19T00:23:13;7.55;;;3.47;;
15526;SDS011;7865;50.918;4.510;2023-06-19T00:28:18;6.82;;;3.78;;
15526;SDS011;7865;50.918;4.510;2023-06-19T00:33:23;5.22;;;3.33;;
15526;SDS011;7865;50.918;4.510;2023-06-19T00:38:26;14.73;;;3.70;;
15526;SDS011;7865;50.918;4.510;2023-06-19T00:43:28;3.53;;;2.95;;
15526;SDS011;7865;50.918;4.510;2023-06-19T00:48:31;4.28;;;3.30;;
15526;SDS011;7865;50.918;4.510;2023-06-19T00:53:35;4.95;;;3.30;;
15526;SDS011;7865;50.918;4.510;2023-06-19T00:58:38;3.60;;;2.85;;
15526;SDS011;7865;50.918;4.510;2023-06-19T01:03:41;4.00;;;2.80;;
15526;SDS011;7865;50.918;4.510;2023-06-19T01:08:54;3.38;;;2.75;;
15526;SDS011;7865;50.918;4.510;2023-06-19T01:14:03;4.45;;;2.92;;
15526;SDS011;7865;50.918;4.510;2023-06-19T01:19:10;4.57;;;3.03;;
15526;SDS011;7865;50.918;4.510;2023-06-19T01:24:17;6.40;;;3.35;;
15526;SDS011;7865;50.918;4.510;2023-06-19T01:29:19;3.00;;;2.72;;
15526;SDS011;7865;50.918;4.510;2023-06-19T01:34:21;4.13;;;2.83;;
15526;SDS011;7865;50.918;4.510;2023-06-19T01:39:27;3.47;;;3.17;;
15526;SDS011;7865;50.918;4.510;2023-06-19T01:44:30;4.85;;;3.00;;
15526;SDS011;7865;50.918;4.510;2023-06-19T01:49:32;4.78;;;3.10;;
15526;SDS011;7865;50.918;4.510;2023-06-19T01:54:37;4.97;;;3.42;;
15526;SDS011;7865;50.918;4.510;2023-06-19T01:59:39;5.25;;;3.30;;
15526;SDS011;7865;50.918;4.510;2023-06-19T02:04:41;4.13;;;3.05;;
15526;SDS011;7865;50.918;4.510;2023-06-19T02:09:44;5.93;;;4.43;;
15526;SDS011;7865;50.918;4.510;2023-06-19T02:14:46;7.05;;;3.22;;
15526;SDS011;7865;50.918;4.510;2023-06-19T02:19:48;4.70;;;3.30;;
15526;SDS011;7865;50.918;4.510;2023-06-19T02:24:51;4.95;;;3.80;;
15526;SDS011;7865;50.918;4.510;2023-06-19T02:29:53;6.25;;;3.53;;
15526;SDS011;7865;50.918;4.510;2023-06-19T02:34:56;4.90;;;4.18;;
15526;SDS011;7865;50.918;4.510;2023-06-19T02:39:59;4.43;;;3.50;;
15526;SDS011;7865;50.918;4.510;2023-06-19T02:45:01;5.75;;;3.78;;
15526;SDS011;7865;50.918;4.510;2023-06-19T02:50:09;4.38;;;3.47;;
15526;SDS011;7865;50.918;4.510;2023-06-19T02:55:11;9.80;;;4.60;;
15526;SDS011;7865;50.918;4.510;2023-06-19T03:00:13;6.28;;;4.47;;
15526;SDS011;7865;50.918;4.510;2023-06-19T03:05:17;5.38;;;3.53;;
15526;SDS011;7865;50.918;4.510;2023-06-19T03:10:19;6.78;;;4.15;;
15526;SDS011;7865;50.918;4.510;2023-06-19T03:15:22;8.77;;;4.72;;
15526;SDS011;7865;50.918;4.510;2023-06-19T03:20:25;6.85;;;4.57;;
15526;SDS011;7865;50.918;4.510;2023-06-19T03:25:31;8.70;;;6.32;;
15526;SDS011;7865;50.918;4.510;2023-06-19T03:30:37;8.10;;;6.60;;
15526;SDS011;7865;50.918;4.510;2023-06-19T03:35:39;9.30;;;6.93;;
15526;SDS011;7865;50.918;4.510;2023-06-19T03:40:48;10.32;;;6.43;;
15526;SDS011;7865;50.918;4.510;2023-06-19T03:45:50;8.90;;;5.38;;
15526;SDS011;7865;50.918;4.510;2023-06-19T03:50:53;6.15;;;4.70;;
15526;SDS011;7865;50.918;4.510;2023-06-19T03:55:55;7.95;;;4.65;;
15526;SDS011;7865;50.918;4.510;2023-06-19T04:00:58;13.73;;;5.30;;
15526;SDS011;7865;50.918;4.510;2023-06-19T04:06:00;6.30;;;5.07;;
15526;SDS011;7865;50.918;4.510;2023-06-19T04:11:02;7.65;;;5.88;;
15526;SDS011;7865;50.918;4.510;2023-06-19T04:16:04;5.97;;;5.10;;
15526;SDS011;7865;50.918;4.510;2023-06-19T04:21:06;6.00;;;4.55;;
15526;SDS011;7865;50.918;4.510;2023-06-19T04:26:08;10.40;;;5.10;;
15526;SDS011;7865;50.918;4.510;2023-06-19T04:31:10;9.05;;;4.93;;
15526;SDS011;7865;50.918;4.510;2023-06-19T04:36:12;5.60;;;4.85;;
15526;SDS011;7865;50.918;4.510;2023-06-19T04:41:16;6.15;;;5.00;;
15526;SDS011;7865;50.918;4.510;2023-06-19T04:46:17;6.82;;;4.78;;
15526;SDS011;7865;50.918;4.510;2023-06-19T04:51:22;6.75;;;5.50;;
15526;SDS011;7865;50.918;4.510;2023-06-19T04:56:24;6.97;;;5.30;;
15526;SDS011;7865;50.918;4.510;2023-06-19T05:01:26;6.57;;;5.47;;
15526;SDS011;7865;50.918;4.510;2023-06-19T05:06:32;8.43;;;5.38;;
15526;SDS011;7865;50.918;4.510;2023-06-19T05:11:34;8.00;;;6.07;;
15526;SDS011;7865;50.918;4.510;2023-06-19T05:16:36;10.55;;;6.90;;
15526;SDS011;7865;50.918;4.510;2023-06-19T05:21:38;9.98;;;7.80;;
15526;SDS011;7865;50.918;4.510;2023-06-19T05:26:40;8.57;;;7.65;;
15526;SDS011;7865;50.918;4.510;2023-06-19T05:31:42;11.98;;;8.20;;
15526;SDS011;7865;50.918;4.510;2023-06-19T05:36:44;9.23;;;7.75;;
15526;SDS011;7865;50.918;4.510;2023-06-19T05:41:48;10.98;;;8.35;;
15526;SDS011;7865;50.918;4.510;2023-06-19T05:46:50;9.80;;;8.23;;
15526;SDS011;7865;50.918;4.510;2023-06-19T05:51:52;13.00;;;10.07;;
15526;SDS011;7865;50.918;4.510;2023-06-19T05:56:55;12.82;;;8.15;;
15526;SDS011;7865;50.918;4.510;2023-06-19T06:01:57;14.20;;;9.25;;
15526;SDS011;7865;50.918;4.510;2023-06-19T06:06:59;13.32;;;10.32;;
15526;SDS011;7865;50.918;4.510;2023-06-19T06:12:01;13.20;;;10.88;;
15526;SDS011;7865;50.918;4.510;2023-06-19T06:17:03;12.05;;;10.95;;
15526;SDS011;7865;50.918;4.510;2023-06-19T06:22:07;16.77;;;11.02;;
15526;SDS011;7865;50.918;4.510;2023-06-19T06:27:09;12.50;;;10.32;;
15526;SDS011;7865;50.918;4.510;2023-06-19T06:32:11;15.73;;;12.50;;
15526;SDS011;7865;50.918;4.510;2023-06-19T06:37:13;16.20;;;12.68;;
15526;SDS011;7865;50.918;4.510;2023-06-19T06:42:17;16.30;;;12.15;;
15526;SDS011;7865;50.918;4.510;2023-06-19T06:47:20;16.60;;;12.27;;
15526;SDS011;7865;50.918;4.510;2023-06-19T06:52:22;13.95;;;10.25;;
15526;SDS011;7865;50.918;4.510;2023-06-19T06:57:25;13.50;;;11.93;;
15526;SDS011;7865;50.918;4.510;2023-06-19T07:02:27;12.63;;;11.35;;
15526;SDS011;7865;50.918;4.510;2023-06-19T07:07:29;12.70;;;11.18;;
15526;SDS011;7865;50.918;4.510;2023-06-19T07:12:31;15.65;;;11.27;;
15526;SDS011;7865;50.918;4.510;2023-06-19T07:17:33;14.05;;;10.75;;
15526;SDS011;7865;50.918;4.510;2023-06-19T07:22:36;12.60;;;10.98;;
15526;SDS011;7865;50.918;4.510;2023-06-19T07:27:41;15.75;;;10.35;;
15526;SDS011;7865;50.918;4.510;2023-06-19T07:32:43;15.68;;;10.75;;
15526;SDS011;7865;50.918;4.510;2023-06-19T07:37:45;14.02;;;10.32;;
15526;SDS011;7865;50.918;4.510;2023-06-19T07:42:47;11.52;;;10.32;;
15526;SDS011;7865;50.918;4.510;2023-06-19T07:47:53;12.63;;;11.20;;
15526;SDS011;7865;50.918;4.510;2023-06-19T07:52:59;14.30;;;10.50;;
15526;SDS011;7865;50.918;4.510;2023-06-19T07:58:01;13.65;;;10.38;;
15526;SDS011;7865;50.918;4.510;2023-06-19T08:03:04;13.48;;;10.18;;
15526;SDS011;7865;50.918;4.510;2023-06-19T08:08:06;12.35;;;10.68;;
15526;SDS011;7865;50.918;4.510;2023-06-19T08:13:08;11.65;;;9.60;;
15526;SDS011;7865;50.918;4.510;2023-06-19T08:18:13;12.10;;;9.52;;
15526;SDS011;7865;50.918;4.510;2023-06-19T08:23:15;11.38;;;8.57;;
15526;SDS011;7865;50.918;4.510;2023-06-19T08:28:17;9.52;;;8.52;;
15526;SDS011;7865;50.918;4.510;2023-06-19T08:33:19;11.27;;;7.78;;
15526;SDS011;7865;50.918;4.510;2023-06-19T08:38:21;14.68;;;8.98;;
15526;SDS011;7865;50.918;4.510;2023-06-19T08:43:23;11.77;;;7.68;;
15526;SDS011;7865;50.918;4.510;2023-06-19T08:48:25;9.32;;;8.32;;
15526;SDS011;7865;50.918;4.510;2023-06-19T08:53:28;8.13;;;6.53;;
15526;SDS011;7865;50.918;4.510;2023-06-19T08:58:32;7.68;;;6.57;;
15526;SDS011;7865;50.918;4.510;2023-06-19T09:03:34;9.52;;;7.18;;
15526;SDS011;7865;50.918;4.510;2023-06-19T09:08:36;8.48;;;7.60;;
15526;SDS011;7865;50.918;4.510;2023-06-19T09:13:39;10.60;;;8.15;;
15526;SDS011;7865;50.918;4.510;2023-06-19T09:18:42;7.50;;;6.65;;
15526;SDS011;7865;50.918;4.510;2023-06-19T09:23:48;9.13;;;6.93;;
15526;SDS011;7865;50.918;4.510;2023-06-19T09:29:09;10.43;;;6.40;;
15526;SDS011;7865;50.918;4.510;2023-06-19T09:34:17;11.73;;;7.45;;
15526;SDS011;7865;50.918;4.510;2023-06-19T09:39:19;6.50;;;5.43;;
15526;SDS011;7865;50.918;4.510;2023-06-19T09:44:23;12.10;;;7.90;;
15526;SDS011;7865;50.918;4.510;2023-06-19T09:49:26;10.60;;;6.32;;
15526;SDS011;7865;50.918;4.510;2023-06-19T09:54:33;10.25;;;6.40;;
15526;SDS011;7865;50.918;4.510;2023-06-19T09:59:38;8.57;;;6.70;;
15526;SDS011;7865;50.918;4.510;2023-06-19T10:04:46;8.52;;;6.50;;
15526;SDS011;7865;50.918;4.510;2023-06-19T10:09:54;9.00;;;6.78;;
15526;SDS011;7865;50.918;4.510;2023-06-19T10:14:58;11.45;;;8.07;;
15526;SDS011;7865;50.918;4.510;2023-06-19T10:25:36;8.63;;;6.82;;
15526;SDS011;7865;50.918;4.510;2023-06-19T10:30:39;10.23;;;6.57;;
15526;SDS011;7865;50.918;4.510;2023-06-19T10:35:41;11.73;;;7.43;;
15526;SDS011;7865;50.918;4.510;2023-06-19T10:40:44;7.22;;;5.72;;
15526;SDS011;7865;50.918;4.510;2023-06-19T10:45:47;7.18;;;5.88;;
15526;SDS011;7865;50.918;4.510;2023-06-19T10:50:49;10.75;;;6.15;;
15526;SDS011;7865;50.918;4.510;2023-06-19T10:55:55;10.02;;;6.38;;
15526;SDS011;7865;50.918;4.510;2023-06-19T11:01:00;8.55;;;5.75;;
15526;SDS011;7865;50.918;4.510;2023-06-19T11:06:03;7.38;;;6.35;;
15526;SDS011;7865;50.918;4.510;2023-06-19T11:11:05;8.27;;;6.20;;
15526;SDS011;7865;50.918;4.510;2023-06-19T11:16:07;8.48;;;6.22;;
15526;SDS011;7865;50.918;4.510;2023-06-19T11:21:09;8.73;;;5.95;;
15526;SDS011;7865;50.918;4.510;2023-06-19T11:26:11;8.73;;;6.10;;
15526;SDS011;7865;50.918;4.510;2023-06-19T11:31:14;8.88;;;6.25;;
15526;SDS011;7865;50.918;4.510;2023-06-19T11:36:17;8.98;;;6.00;;
15526;SDS011;7865;50.918;4.510;2023-06-19T11:41:26;6.90;;;5.78;;
15526;SDS011;7865;50.918;4.510;2023-06-19T11:46:29;7.00;;;5.70;;
15526;SDS011;7865;50.918;4.510;2023-06-19T11:51:33;9.85;;;7.07;;
15526;SDS011;7865;50.918;4.510;2023-06-19T11:56:35;9.00;;;6.28;;
15526;SDS011;7865;50.918;4.510;2023-06-19T12:01:38;7.10;;;5.68;;
15526;SDS011;7865;50.918;4.510;2023-06-19T12:06:40;8.98;;;6.53;;
15526;SDS011;7865;50.918;4.510;2023-06-19T12:11:42;8.30;;;7.40;;
15526;SDS011;7865;50.918;4.510;2023-06-19T12:16:46;7.47;;;6.50;;
15526;SDS011;7865;50.918;4.510;2023-06-19T12:21:48;8.40;;;7.13;;
15526;SDS011;7865;50.918;4.510;2023-06-19T12:26:50;8.40;;;6.40;;
15526;SDS011;7865;50.918;4.510;2023-06-19T12:31:52;7.65;;;6.65;;
15526;SDS011;7865;50.918;4.510;2023-06-19T12:36:59;7.97;;;6.03;;
15526;SDS011;7865;50.918;4.510;2023-06-19T12:42:02;9.43;;;5.60;;
15526;SDS011;7865;50.918;4.510;2023-06-19T12:47:04;7.18;;;5.90;;
15526;SDS011;7865;50.918;4.510;2023-06-19T12:52:06;6.78;;;5.47;;
15526;SDS011;7865;50.918;4.510;2023-06-19T12:57:09;6.55;;;5.28;;
15526;SDS011;7865;50.918;4.510;2023-06-19T13:02:11;7.57;;;5.60;;
15526;SDS011;7865;50.918;4.510;2023-06-19T13:07:16;9.52;;;5.72;;
15526;SDS011;7865;50.918;4.510;2023-06-19T13:12:18;6.00;;;4.72;;
15526;SDS011;7865;50.918;4.510;2023-06-19T13:17:20;6.05;;;4.53;;
15526;SDS011;7865;50.918;4.510;2023-06-19T13:22:22;7.55;;;5.57;;
15526;SDS011;7865;50.918;4.510;2023-06-19T13:27:26;5.72;;;5.18;;
15526;SDS011;7865;50.918;4.510;2023-06-19T13:32:28;6.32;;;5.28;;
15526;SDS011;7865;50.918;4.510;2023-06-19T13:37:31;6.57;;;5.00;;
15526;SDS011;7865;50.918;4.510;2023-06-19T13:42:35;5.47;;;4.85;;
15526;SDS011;7865;50.918;4.510;2023-06-19T13:47:38;6.38;;;4.50;;
15526;SDS011;7865;50.918;4.510;2023-06-19T13:52:40;9.18;;;5.18;;
15526;SDS011;7865;50.918;4.510;2023-06-19T13:57:43;6.60;;;4.50;;
15526;SDS011;7865;50.918;4.510;2023-06-19T14:02:45;5.10;;;4.30;;
15526;SDS011;7865;50.918;4.510;2023-06-19T14:07:47;5.40;;;4.50;;
15526;SDS011;7865;50.918;4.510;2023-06-19T14:12:49;6.90;;;4.70;;
15526;SDS011;7865;50.918;4.510;2023-06-19T14:17:51;5.45;;;4.95;;
15526;SDS011;7865;50.918;4.510;2023-06-19T14:22:54;7.25;;;4.78;;
15526;SDS011;7865;50.918;4.510;2023-06-19T14:27:55;4.90;;;4.22;;
15526;SDS011;7865;50.918;4.510;2023-06-19T14:32:58;6.30;;;4.72;;
15526;SDS011;7865;50.918;4.510;2023-06-19T14:38:00;4.68;;;4.22;;
15526;SDS011;7865;50.918;4.510;2023-06-19T14:43:02;11.43;;;4.80;;
15526;SDS011;7865;50.918;4.510;2023-06-19T14:48:04;7.75;;;4.60;;
15526;SDS011;7865;50.918;4.510;2023-06-19T14:53:06;4.47;;;4.07;;
15526;SDS011;7865;50.918;4.510;2023-06-19T14:58:09;5.13;;;4.57;;
15526;SDS011;7865;50.918;4.510;2023-06-19T15:03:11;7.70;;;4.25;;
15526;SDS011;7865;50.918;4.510;2023-06-19T15:08:13;4.50;;;4.10;;
15526;SDS011;7865;50.918;4.510;2023-06-19T15:13:15;4.22;;;3.58;;
15526;SDS011;7865;50.918;4.510;2023-06-19T15:18:18;4.85;;;3.97;;
15526;SDS011;7865;50.918;4.510;2023-06-19T15:23:20;6.75;;;3.55;;
15526;SDS011;7865;50.918;4.510;2023-06-19T15:28:23;6.25;;;4.22;;
15526;SDS011;7865;50.918;4.510;2023-06-19T15:33:25;5.07;;;3.97;;
15526;SDS011;7865;50.918;4.510;2023-06-19T15:38:27;4.63;;;4.13;;
15526;SDS011;7865;50.918;4.510;2023-06-19T15:43:29;4.15;;;3.75;;
15526;SDS011;7865;50.918;4.510;2023-06-19T15:48:32;5.28;;;3.28;;
15526;SDS011;7865;50.918;4.510;2023-06-19T15:53:34;4.78;;;4.07;;
15526;SDS011;7865;50.918;4.510;2023-06-19T15:58:41;4.05;;;3.60;;
15526;SDS011;7865;50.918;4.510;2023-06-19T16:03:43;4.43;;;3.05;;
15526;SDS011;7865;50.918;4.510;2023-06-19T16:08:45;7.28;;;4.45;;
15526;SDS011;7865;50.918;4.510;2023-06-19T16:13:47;5.32;;;3.70;;
15526;SDS011;7865;50.918;4.510;2023-06-19T16:18:49;3.97;;;3.55;;
15526;SDS011;7865;50.918;4.510;2023-06-19T16:23:51;5.20;;;3.70;;
15526;SDS011;7865;50.918;4.510;2023-06-19T16:28:53;4.88;;;3.70;;
15526;SDS011;7865;50.918;4.510;2023-06-19T16:33:55;5.93;;;3.80;;
15526;SDS011;7865;50.918;4.510;2023-06-19T16:38:58;5.93;;;3.88;;
15526;SDS011;7865;50.918;4.510;2023-06-19T16:44:01;6.18;;;3.65;;
15526;SDS011;7865;50.918;4.510;2023-06-19T16:49:03;6.93;;;4.43;;
15526;SDS011;7865;50.918;4.510;2023-06-19T16:54:05;6.93;;;4.25;;
15526;SDS011;7865;50.918;4.510;2023-06-19T16:59:07;4.70;;;4.25;;
15526;SDS011;7865;50.918;4.510;2023-06-19T17:04:11;7.22;;;3.85;;
15526;SDS011;7865;50.918;4.510;2023-06-19T17:09:13;7.25;;;4.47;;
15526;SDS011;7865;50.918;4.510;2023-06-19T17:14:15;7.45;;;4.13;;
15526;SDS011;7865;50.918;4.510;2023-06-19T17:19:17;6.00;;;4.22;;
15526;SDS011;7865;50.918;4.510;2023-06-19T17:24:19;6.32;;;4.20;;
15526;SDS011;7865;50.918;4.510;2023-06-19T17:29:23;6.80;;;4.47;;
15526;SDS011;7865;50.918;4.510;2023-06-19T17:34:26;6.00;;;4.25;;
15526;SDS011;7865;50.918;4.510;2023-06-19T17:39:28;5.00;;;4.35;;
15526;SDS011;7865;50.918;4.510;2023-06-19T17:44:30;6.55;;;4.30;;
15526;SDS011;7865;50.918;4.510;2023-06-19T17:49:32;5.18;;;4.10;;
15526;SDS011;7865;50.918;4.510;2023-06-19T17:54:35;7.30;;;4.75;;
15526;SDS011;7865;50.918;4.510;2023-06-19T17:59:37;6.30;;;4.15;;
15526;SDS011;7865;50.918;4.510;2023-06-19T18:04:39;4.80;;;3.67;;
15526;SDS011;7865;50.918;4.510;2023-06-19T18:09:41;6.07;;;4.22;;
15526;SDS011;7865;50.918;4.510;2023-06-19T18:14:48;5.88;;;4.00;;
15526;SDS011;7865;50.918;4.510;2023-06-19T18:19:50;5.22;;;4.15;;
15526;SDS011;7865;50.918;4.510;2023-06-19T18:24:52;6.63;;;4.53;;
15526;SDS011;7865;50.918;4.510;2023-06-19T18:29:55;7.50;;;4.25;;
15526;SDS011;7865;50.918;4.510;2023-06-19T18:34:57;9.63;;;4.20;;
15526;SDS011;7865;50.918;4.510;2023-06-19T18:39:59;6.10;;;4.03;;
15526;SDS011;7865;50.918;4.510;2023-06-19T18:45:01;6.32;;;4.20;;
15526;SDS011;7865;50.918;4.510;2023-06-19T18:50:04;9.38;;;4.72;;
15526;SDS011;7865;50.918;4.510;2023-06-19T18:55:07;5.40;;;4.13;;
15526;SDS011;7865;50.918;4.510;2023-06-19T19:00:09;5.47;;;4.00;;
15526;SDS011;7865;50.918;4.510;2023-06-19T19:05:12;10.50;;;4.53;;
15526;SDS011;7865;50.918;4.510;2023-06-19T19:10:14;6.53;;;4.63;;
15526;SDS011;7865;50.918;4.510;2023-06-19T19:15:17;5.22;;;4.00;;
15526;SDS011;7865;50.918;4.510;2023-06-19T19:20:19;4.70;;;4.28;;
15526;SDS011;7865;50.918;4.510;2023-06-19T19:25:21;6.88;;;4.20;;
15526;SDS011;7865;50.918;4.510;2023-06-19T19:30:23;8.95;;;4.70;;
15526;SDS011;7865;50.918;4.510;2023-06-19T19:35:26;6.25;;;4.05;;
15526;SDS011;7865;50.918;4.510;2023-06-19T19:40:28;6.25;;;4.43;;
15526;SDS011;7865;50.918;4.510;2023-06-19T19:45:30;6.15;;;4.25;;
15526;SDS011;7865;50.918;4.510;2023-06-19T19:50:32;6.18;;;4.43;;
15526;SDS011;7865;50.918;4.510;2023-06-19T19:55:34;5.65;;;4.20;;
15526;SDS011;7865;50.918;4.510;2023-06-19T20:00:36;5.07;;;4.32;;
15526;SDS011;7865;50.918;4.510;2023-06-19T20:05:38;7.78;;;4.07;;
15526;SDS011;7865;50.918;4.510;2023-06-19T20:10:41;6.70;;;4.20;;
15526;SDS011;7865;50.918;4.510;2023-06-19T20:15:45;8.00;;;4.43;;
15526;SDS011;7865;50.918;4.510;2023-06-19T20:20:48;6.43;;;4.55;;
15526;SDS011;7865;50.918;4.510;2023-06-19T20:25:51;7.72;;;4.72;;
15526;SDS011;7865;50.918;4.510;2023-06-19T20:30:54;5.88;;;4.93;;
15526;SDS011;7865;50.918;4.510;2023-06-19T20:35:56;6.70;;;4.65;;
15526;SDS011;7865;50.918;4.510;2023-06-19T20:41:02;6.82;;;4.85;;
15526;SDS011;7865;50.918;4.510;2023-06-19T20:46:04;9.05;;;5.35;;
15526;SDS011;7865;50.918;4.510;2023-06-19T20:51:09;7.80;;;5.15;;
15526;SDS011;7865;50.918;4.510;2023-06-19T20:56:11;7.25;;;5.75;;
15526;SDS011;7865;50.918;4.510;2023-06-19T21:01:14;6.05;;;5.45;;
15526;SDS011;7865;50.918;4.510;2023-06-19T21:06:16;7.03;;;5.43;;
15526;SDS011;7865;50.918;4.510;2023-06-19T21:11:21;6.80;;;5.00;;
15526;SDS011;7865;50.918;4.510;2023-06-19T21:16:23;10.88;;;5.22;;
15526;SDS011;7865;50.918;4.510;2023-06-19T21:21:26;8.35;;;5.95;;
15526;SDS011;7865;50.918;4.510;2023-06-19T21:26:28;9.00;;;5.50;;
15526;SDS011;7865;50.918;4.510;2023-06-19T21:31:30;6.80;;;5.35;;
15526;SDS011;7865;50.918;4.510;2023-06-19T21:36:32;8.25;;;6.03;;
15526;SDS011;7865;50.918;4.510;2023-06-19T21:41:35;12.75;;;5.53;;
15526;SDS011;7865;50.918;4.510;2023-06-19T21:46:37;7.97;;;5.63;;
15526;SDS011;7865;50.918;4.510;2023-06-19T21:51:40;10.75;;;5.63;;
15526;SDS011;7865;50.918;4.510;2023-06-19T21:56:43;7.68;;;5.22;;
15526;SDS011;7865;50.918;4.510;2023-06-19T22:01:45;8.95;;;5.20;;
15526;SDS011;7865;50.918;4.510;2023-06-19T22:06:47;7.32;;;5.50;;
15526;SDS011;7865;50.918;4.510;2023-06-19T22:11:49;8.55;;;6.13;;
15526;SDS011;7865;50.918;4.510;2023-06-19T22:16:51;13.73;;;5.93;;
15526;SDS011;7865;50.918;4.510;2023-06-19T22:21:53;9.25;;;5.07;;
15526;SDS011;7865;50.918;4.510;2023-06-19T22:26:55;12.27;;;5.50;;
15526;SDS011;7865;50.918;4.510;2023-06-19T22:31:57;6.13;;;5.53;;
15526;SDS011;7865;50.918;4.510;2023-06-19T22:36:59;5.75;;;4.45;;
15526;SDS011;7865;50.918;4.510;2023-06-19T22:42:02;6.72;;;4.43;;
15526;SDS011;7865;50.918;4.510;2023-06-19T22:47:04;6.78;;;5.35;;
15526;SDS011;7865;50.918;4.510;2023-06-19T22:52:06;7.03;;;4.85;;
15526;SDS011;7865;50.918;4.510;2023-06-19T22:57:10;7.35;;;5.40;;
15526;SDS011;7865;50.918;4.510;2023-06-19T23:02:12;7.53;;;5.00;;
15526;SDS011;7865;50.918;4.510;2023-06-19T23:07:14;7.18;;;5.15;;
15526;SDS011;7865;50.918;4.510;2023-06-19T23:12:16;5.65;;;4.97;;
15526;SDS011;7865;50.918;4.510;2023-06-19T23:17:22;6.63;;;5.38;;
15526;SDS011;7865;50.918;4.510;2023-06-19T23:22:24;5.53;;;4.53;;
15526;SDS011;7865;50.918;4.510;2023-06-19T23:27:27;6.00;;;4.97;;
15526;SDS011;7865;50.918;4.510;2023-06-19T23:32:29;6.90;;;5.13;;
15526;SDS011;7865;50.918;4.510;2023-06-19T23:37:31;9.57;;;5.57;;
15526;SDS011;7865;50.918;4.510;2023-06-19T23:42:33;6.85;;;4.93;;
15526;SDS011;7865;50.918;4.510;2023-06-19T23:47:35;6.68;;;5.47;;
15526;SDS011;7865;50.918;4.510;2023-06-19T23:52:37;8.80;;;6.28;;
15526;SDS011;7865;50.918;4.510;2023-06-19T23:57:45;7.15;;;5.85;;
